sensor_id;sensor_type;location;lat;lon;timestamp;P1;durP1;ratioP1;P2;durP2;ratioP2
53513;SDS011;39768;54.148;12.174;2022-09-29T00:00:54;3.95;;;2.72;;
53513;SDS011;39768;54.148;12.174;2022-09-29T00:04:56;4.75;;;2.38;;
53513;SDS011;39768;54.148;12.174;2022-09-29T00:08:57;10.23;;;2.03;;
53513;SDS011;39768;54.148;12.174;2022-09-29T00:12:58;3.55;;;2.67;;
53513;SDS011;39768;54.148;12.174;2022-09-29T00:17:00;3.80;;;2.80;;
53513;SDS011;39768;54.148;12.174;2022-09-29T00:21:03;3.70;;;2.33;;
53513;SDS011;39768;54.148;12.174;2022-09-29T00:25:09;3.90;;;2.72;;
53513;SDS011;39768;54.148;12.174;2022-09-29T00:29:11;3.80;;;2.08;;
53513;SDS011;39768;54.148;12.174;2022-09-29T00:33:12;3.88;;;3.20;;
53513;SDS011;39768;54.148;12.174;2022-09-29T00:37:14;4.18;;;2.83;;
53513;SDS011;39768;54.148;12.174;2022-09-29T00:41:20;3.65;;;2.88;;
53513;SDS011;39768;54.148;12.174;2022-09-29T00:45:26;8.60;;;1.92;;
53513;SDS011;39768;54.148;12.174;2022-09-29T00:53:51;6.03;;;2.67;;
53513;SDS011;39768;54.148;12.174;2022-09-29T00:58:04;3.90;;;2.00;;
53513;SDS011;39768;54.148;12.174;2022-09-29T01:02:13;2.95;;;2.42;;
53513;SDS011;39768;54.148;12.174;2022-09-29T01:06:23;3.80;;;2.13;;
53513;SDS011;39768;54.148;12.174;2022-09-29T01:10:29;2.88;;;2.63;;
53513;SDS011;39768;54.148;12.174;2022-09-29T01:14:31;4.32;;;2.63;;
53513;SDS011;39768;54.148;12.174;2022-09-29T01:18:35;2.40;;;1.85;;
53513;SDS011;39768;54.148;12.174;2022-09-29T01:22:51;3.50;;;2.22;;
53513;SDS011;39768;54.148;12.174;2022-09-29T01:27:04;3.90;;;3.20;;
53513;SDS011;39768;54.148;12.174;2022-09-29T01:39:58;4.63;;;2.50;;
53513;SDS011;39768;54.148;12.174;2022-09-29T01:48:44;5.90;;;2.67;;
53513;SDS011;39768;54.148;12.174;2022-09-29T01:52:51;4.82;;;3.65;;
53513;SDS011;39768;54.148;12.174;2022-09-29T01:57:09;6.13;;;3.05;;
53513;SDS011;39768;54.148;12.174;2022-09-29T02:01:27;8.82;;;3.50;;
53513;SDS011;39768;54.148;12.174;2022-09-29T02:05:38;3.00;;;2.70;;
53513;SDS011;39768;54.148;12.174;2022-09-29T02:09:45;6.25;;;2.97;;
53513;SDS011;39768;54.148;12.174;2022-09-29T02:13:56;6.13;;;2.80;;
53513;SDS011;39768;54.148;12.174;2022-09-29T02:18:09;4.18;;;3.03;;
53513;SDS011;39768;54.148;12.174;2022-09-29T02:22:33;6.45;;;3.22;;
53513;SDS011;39768;54.148;12.174;2022-09-29T02:26:35;3.15;;;2.83;;
53513;SDS011;39768;54.148;12.174;2022-09-29T02:30:36;4.78;;;3.20;;
53513;SDS011;39768;54.148;12.174;2022-09-29T02:34:39;2.97;;;2.67;;
53513;SDS011;39768;54.148;12.174;2022-09-29T02:38:53;3.92;;;2.92;;
53513;SDS011;39768;54.148;12.174;2022-09-29T02:43:53;4.32;;;2.40;;
53513;SDS011;39768;54.148;12.174;2022-09-29T02:52:23;3.67;;;2.30;;
53513;SDS011;39768;54.148;12.174;2022-09-29T02:56:37;3.88;;;2.58;;
53513;SDS011;39768;54.148;12.174;2022-09-29T03:00:45;7.97;;;3.22;;
53513;SDS011;39768;54.148;12.174;2022-09-29T03:04:47;9.20;;;3.85;;
53513;SDS011;39768;54.148;12.174;2022-09-29T03:08:49;10.65;;;3.78;;
53513;SDS011;39768;54.148;12.174;2022-09-29T03:12:50;10.02;;;3.70;;
53513;SDS011;39768;54.148;12.174;2022-09-29T03:16:52;9.57;;;3.50;;
53513;SDS011;39768;54.148;12.174;2022-09-29T03:20:53;4.65;;;3.75;;
53513;SDS011;39768;54.148;12.174;2022-09-29T03:24:55;5.85;;;3.15;;
53513;SDS011;39768;54.148;12.174;2022-09-29T03:28:57;4.65;;;3.08;;
53513;SDS011;39768;54.148;12.174;2022-09-29T03:32:58;6.78;;;2.92;;
53513;SDS011;39768;54.148;12.174;2022-09-29T03:37:00;6.10;;;3.63;;
53513;SDS011;39768;54.148;12.174;2022-09-29T03:41:02;6.20;;;3.47;;
53513;SDS011;39768;54.148;12.174;2022-09-29T03:45:05;6.30;;;4.43;;
53513;SDS011;39768;54.148;12.174;2022-09-29T03:49:10;6.95;;;3.55;;
53513;SDS011;39768;54.148;12.174;2022-09-29T03:53:12;11.68;;;4.88;;
53513;SDS011;39768;54.148;12.174;2022-09-29T03:57:14;8.35;;;3.40;;
53513;SDS011;39768;54.148;12.174;2022-09-29T04:01:15;9.75;;;3.55;;
53513;SDS011;39768;54.148;12.174;2022-09-29T04:05:17;7.32;;;3.92;;
53513;SDS011;39768;54.148;12.174;2022-09-29T04:09:18;10.18;;;4.82;;
53513;SDS011;39768;54.148;12.174;2022-09-29T04:13:20;7.65;;;4.38;;
53513;SDS011;39768;54.148;12.174;2022-09-29T04:17:22;9.38;;;4.78;;
53513;SDS011;39768;54.148;12.174;2022-09-29T04:21:23;10.57;;;3.90;;
53513;SDS011;39768;54.148;12.174;2022-09-29T04:25:25;12.57;;;5.07;;
53513;SDS011;39768;54.148;12.174;2022-09-29T04:29:28;6.22;;;4.05;;
53513;SDS011;39768;54.148;12.174;2022-09-29T04:33:29;14.57;;;4.35;;
53513;SDS011;39768;54.148;12.174;2022-09-29T04:37:31;9.27;;;4.53;;
53513;SDS011;39768;54.148;12.174;2022-09-29T04:41:33;6.22;;;4.35;;
53513;SDS011;39768;54.148;12.174;2022-09-29T04:45:36;14.40;;;4.55;;
53513;SDS011;39768;54.148;12.174;2022-09-29T04:49:38;11.63;;;4.47;;
53513;SDS011;39768;54.148;12.174;2022-09-29T04:53:39;13.27;;;4.53;;
53513;SDS011;39768;54.148;12.174;2022-09-29T04:57:41;9.48;;;4.55;;
53513;SDS011;39768;54.148;12.174;2022-09-29T05:01:44;9.90;;;4.65;;
53513;SDS011;39768;54.148;12.174;2022-09-29T05:05:45;11.15;;;4.70;;
53513;SDS011;39768;54.148;12.174;2022-09-29T05:09:47;9.50;;;4.30;;
53513;SDS011;39768;54.148;12.174;2022-09-29T05:13:48;7.95;;;5.07;;
53513;SDS011;39768;54.148;12.174;2022-09-29T05:17:53;13.48;;;5.80;;
53513;SDS011;39768;54.148;12.174;2022-09-29T05:21:54;17.88;;;4.78;;
53513;SDS011;39768;54.148;12.174;2022-09-29T05:25:59;8.68;;;4.85;;
53513;SDS011;39768;54.148;12.174;2022-09-29T05:30:04;10.90;;;4.20;;
53513;SDS011;39768;54.148;12.174;2022-09-29T05:34:06;7.82;;;3.50;;
53513;SDS011;39768;54.148;12.174;2022-09-29T05:38:08;10.55;;;3.78;;
53513;SDS011;39768;54.148;12.174;2022-09-29T05:42:10;11.52;;;4.75;;
53513;SDS011;39768;54.148;12.174;2022-09-29T05:46:12;8.27;;;3.90;;
53513;SDS011;39768;54.148;12.174;2022-09-29T05:50:14;7.78;;;4.45;;
53513;SDS011;39768;54.148;12.174;2022-09-29T05:54:16;9.20;;;5.28;;
53513;SDS011;39768;54.148;12.174;2022-09-29T05:58:17;8.88;;;4.15;;
53513;SDS011;39768;54.148;12.174;2022-09-29T06:02:19;7.07;;;4.82;;
53513;SDS011;39768;54.148;12.174;2022-09-29T06:06:22;13.40;;;5.82;;
53513;SDS011;39768;54.148;12.174;2022-09-29T06:10:26;9.00;;;4.28;;
53513;SDS011;39768;54.148;12.174;2022-09-29T06:14:27;8.75;;;5.10;;
53513;SDS011;39768;54.148;12.174;2022-09-29T06:18:29;8.30;;;4.72;;
53513;SDS011;39768;54.148;12.174;2022-09-29T06:22:31;5.03;;;3.58;;
53513;SDS011;39768;54.148;12.174;2022-09-29T06:26:33;9.07;;;5.63;;
53513;SDS011;39768;54.148;12.174;2022-09-29T06:30:35;5.38;;;4.05;;
53513;SDS011;39768;54.148;12.174;2022-09-29T06:34:37;7.82;;;4.03;;
53513;SDS011;39768;54.148;12.174;2022-09-29T06:38:59;8.45;;;4.28;;
53513;SDS011;39768;54.148;12.174;2022-09-29T06:43:01;11.88;;;4.78;;
53513;SDS011;39768;54.148;12.174;2022-09-29T06:47:03;8.00;;;4.88;;
53513;SDS011;39768;54.148;12.174;2022-09-29T06:51:07;12.07;;;4.88;;
53513;SDS011;39768;54.148;12.174;2022-09-29T06:55:10;8.93;;;4.65;;
53513;SDS011;39768;54.148;12.174;2022-09-29T06:59:12;8.02;;;3.60;;
53513;SDS011;39768;54.148;12.174;2022-09-29T07:03:14;8.02;;;4.63;;
53513;SDS011;39768;54.148;12.174;2022-09-29T07:07:15;9.77;;;4.35;;
53513;SDS011;39768;54.148;12.174;2022-09-29T07:11:17;5.93;;;3.50;;
53513;SDS011;39768;54.148;12.174;2022-09-29T07:15:18;7.93;;;4.60;;
53513;SDS011;39768;54.148;12.174;2022-09-29T07:19:20;8.38;;;4.15;;
53513;SDS011;39768;54.148;12.174;2022-09-29T07:23:22;9.07;;;4.85;;
53513;SDS011;39768;54.148;12.174;2022-09-29T07:27:24;8.05;;;5.00;;
53513;SDS011;39768;54.148;12.174;2022-09-29T07:31:25;5.82;;;2.85;;
53513;SDS011;39768;54.148;12.174;2022-09-29T07:35:27;6.65;;;4.03;;
53513;SDS011;39768;54.148;12.174;2022-09-29T07:39:29;9.20;;;3.67;;
53513;SDS011;39768;54.148;12.174;2022-09-29T07:43:30;6.35;;;3.85;;
53513;SDS011;39768;54.148;12.174;2022-09-29T07:47:32;6.30;;;3.42;;
53513;SDS011;39768;54.148;12.174;2022-09-29T07:51:34;14.43;;;4.15;;
53513;SDS011;39768;54.148;12.174;2022-09-29T07:55:35;8.23;;;3.95;;
53513;SDS011;39768;54.148;12.174;2022-09-29T07:59:37;8.55;;;4.38;;
53513;SDS011;39768;54.148;12.174;2022-09-29T08:03:52;6.72;;;3.58;;
53513;SDS011;39768;54.148;12.174;2022-09-29T08:07:55;4.50;;;3.10;;
53513;SDS011;39768;54.148;12.174;2022-09-29T08:11:58;8.45;;;3.60;;
53513;SDS011;39768;54.148;12.174;2022-09-29T08:16:10;6.47;;;3.65;;
53513;SDS011;39768;54.148;12.174;2022-09-29T08:20:12;3.70;;;3.35;;
53513;SDS011;39768;54.148;12.174;2022-09-29T08:24:14;9.27;;;3.83;;
53513;SDS011;39768;54.148;12.174;2022-09-29T08:28:17;8.07;;;3.15;;
53513;SDS011;39768;54.148;12.174;2022-09-29T08:32:32;2.22;;;2.00;;
53513;SDS011;39768;54.148;12.174;2022-09-29T08:36:33;9.18;;;4.00;;
53513;SDS011;39768;54.148;12.174;2022-09-29T08:40:36;4.22;;;3.00;;
53513;SDS011;39768;54.148;12.174;2022-09-29T08:44:43;6.18;;;3.13;;
53513;SDS011;39768;54.148;12.174;2022-09-29T08:48:51;7.50;;;4.40;;
53513;SDS011;39768;54.148;12.174;2022-09-29T08:53:00;5.10;;;3.15;;
53513;SDS011;39768;54.148;12.174;2022-09-29T08:57:28;5.85;;;3.25;;
53513;SDS011;39768;54.148;12.174;2022-09-29T09:01:45;6.78;;;3.28;;
53513;SDS011;39768;54.148;12.174;2022-09-29T09:06:06;5.90;;;4.05;;
53513;SDS011;39768;54.148;12.174;2022-09-29T09:10:17;4.18;;;3.08;;
53513;SDS011;39768;54.148;12.174;2022-09-29T09:27:35;4.40;;;2.92;;
53513;SDS011;39768;54.148;12.174;2022-09-29T09:31:43;3.10;;;2.42;;
53513;SDS011;39768;54.148;12.174;2022-09-29T09:35:52;11.40;;;3.28;;
53513;SDS011;39768;54.148;12.174;2022-09-29T09:40:02;5.50;;;3.05;;
53513;SDS011;39768;54.148;12.174;2022-09-29T09:44:29;4.88;;;2.58;;
53513;SDS011;39768;54.148;12.174;2022-09-29T09:48:35;4.67;;;2.80;;
53513;SDS011;39768;54.148;12.174;2022-09-29T09:52:43;5.10;;;3.70;;
53513;SDS011;39768;54.148;12.174;2022-09-29T09:57:02;11.38;;;4.20;;
53513;SDS011;39768;54.148;12.174;2022-09-29T10:01:22;7.07;;;3.15;;
53513;SDS011;39768;54.148;12.174;2022-09-29T10:05:27;5.60;;;2.70;;
53513;SDS011;39768;54.148;12.174;2022-09-29T10:09:34;5.43;;;3.17;;
53513;SDS011;39768;54.148;12.174;2022-09-29T10:13:35;5.85;;;3.20;;
53513;SDS011;39768;54.148;12.174;2022-09-29T10:17:38;7.80;;;2.70;;
53513;SDS011;39768;54.148;12.174;2022-09-29T10:21:44;3.00;;;1.90;;
53513;SDS011;39768;54.148;12.174;2022-09-29T10:25:53;6.43;;;2.83;;
53513;SDS011;39768;54.148;12.174;2022-09-29T10:29:58;4.35;;;2.55;;
53513;SDS011;39768;54.148;12.174;2022-09-29T10:38:15;4.60;;;3.03;;
53513;SDS011;39768;54.148;12.174;2022-09-29T10:42:25;2.80;;;1.85;;
53513;SDS011;39768;54.148;12.174;2022-09-29T10:46:36;2.45;;;2.17;;
53513;SDS011;39768;54.148;12.174;2022-09-29T10:51:11;2.67;;;2.42;;
53513;SDS011;39768;54.148;12.174;2022-09-29T10:55:21;2.72;;;1.67;;
53513;SDS011;39768;54.148;12.174;2022-09-29T10:59:27;1.67;;;1.40;;
53513;SDS011;39768;54.148;12.174;2022-09-29T11:03:29;0.57;;;0.57;;
53513;SDS011;39768;54.148;12.174;2022-09-29T11:07:30;2.33;;;1.25;;
53513;SDS011;39768;54.148;12.174;2022-09-29T11:11:35;2.40;;;1.33;;
53513;SDS011;39768;54.148;12.174;2022-09-29T11:15:39;0.95;;;0.85;;
53513;SDS011;39768;54.148;12.174;2022-09-29T11:19:41;1.45;;;1.15;;
53513;SDS011;39768;54.148;12.174;2022-09-29T11:28:15;0.73;;;0.73;;
53513;SDS011;39768;54.148;12.174;2022-09-29T11:32:30;0.60;;;0.60;;
53513;SDS011;39768;54.148;12.174;2022-09-29T11:36:54;1.15;;;1.05;;
53513;SDS011;39768;54.148;12.174;2022-09-29T11:41:27;1.10;;;1.05;;
53513;SDS011;39768;54.148;12.174;2022-09-29T11:54:54;1.95;;;1.27;;
53513;SDS011;39768;54.148;12.174;2022-09-29T12:03:34;1.35;;;0.93;;
53513;SDS011;39768;54.148;12.174;2022-09-29T12:08:00;5.97;;;1.20;;
53513;SDS011;39768;54.148;12.174;2022-09-29T12:16:34;1.58;;;1.35;;
53513;SDS011;39768;54.148;12.174;2022-09-29T12:20:41;0.98;;;0.98;;
53513;SDS011;39768;54.148;12.174;2022-09-29T12:24:54;1.88;;;1.20;;
53513;SDS011;39768;54.148;12.174;2022-09-29T12:33:57;0.82;;;0.82;;
53513;SDS011;39768;54.148;12.174;2022-09-29T12:38:15;0.68;;;0.68;;
53513;SDS011;39768;54.148;12.174;2022-09-29T12:42:33;3.28;;;1.17;;
53513;SDS011;39768;54.148;12.174;2022-09-29T12:50:50;1.13;;;1.02;;
53513;SDS011;39768;54.148;12.174;2022-09-29T12:55:02;1.20;;;0.70;;
53513;SDS011;39768;54.148;12.174;2022-09-29T12:59:10;2.80;;;1.40;;
53513;SDS011;39768;54.148;12.174;2022-09-29T13:17:22;2.22;;;0.95;;
53513;SDS011;39768;54.148;12.174;2022-09-29T13:21:55;0.35;;;0.35;;
53513;SDS011;39768;54.148;12.174;2022-09-29T13:30:17;0.60;;;0.60;;
53513;SDS011;39768;54.148;12.174;2022-09-29T13:34:28;0.80;;;0.80;;
53513;SDS011;39768;54.148;12.174;2022-09-29T13:38:32;0.90;;;0.63;;
53513;SDS011;39768;54.148;12.174;2022-09-29T13:42:38;1.25;;;1.15;;
53513;SDS011;39768;54.148;12.174;2022-09-29T13:46:41;3.00;;;1.25;;
53513;SDS011;39768;54.148;12.174;2022-09-29T13:50:47;0.93;;;0.93;;
53513;SDS011;39768;54.148;12.174;2022-09-29T13:54:50;2.72;;;1.30;;
53513;SDS011;39768;54.148;12.174;2022-09-29T14:03:00;1.25;;;1.25;;
53513;SDS011;39768;54.148;12.174;2022-09-29T14:07:04;1.90;;;1.80;;
53513;SDS011;39768;54.148;12.174;2022-09-29T14:11:20;3.30;;;1.10;;
53513;SDS011;39768;54.148;12.174;2022-09-29T14:15:28;1.60;;;1.25;;
53513;SDS011;39768;54.148;12.174;2022-09-29T14:28:35;1.67;;;1.38;;
53513;SDS011;39768;54.148;12.174;2022-09-29T14:32:44;1.00;;;0.98;;
53513;SDS011;39768;54.148;12.174;2022-09-29T14:36:55;2.13;;;1.77;;
53513;SDS011;39768;54.148;12.174;2022-09-29T14:41:02;2.42;;;1.90;;
53513;SDS011;39768;54.148;12.174;2022-09-29T14:45:15;1.98;;;1.73;;
53513;SDS011;39768;54.148;12.174;2022-09-29T14:49:46;1.77;;;1.65;;
53513;SDS011;39768;54.148;12.174;2022-09-29T14:54:22;2.17;;;1.70;;
53513;SDS011;39768;54.148;12.174;2022-09-29T14:58:46;3.70;;;1.63;;
53513;SDS011;39768;54.148;12.174;2022-09-29T15:03:10;2.42;;;1.58;;
53513;SDS011;39768;54.148;12.174;2022-09-29T15:07:28;3.80;;;2.50;;
53513;SDS011;39768;54.148;12.174;2022-09-29T15:11:41;1.67;;;1.58;;
53513;SDS011;39768;54.148;12.174;2022-09-29T15:15:46;2.67;;;1.30;;
53513;SDS011;39768;54.148;12.174;2022-09-29T15:24:34;2.97;;;1.30;;
53513;SDS011;39768;54.148;12.174;2022-09-29T15:28:45;1.15;;;1.13;;
53513;SDS011;39768;54.148;12.174;2022-09-29T15:32:47;2.17;;;1.52;;
53513;SDS011;39768;54.148;12.174;2022-09-29T15:36:51;1.55;;;1.45;;
53513;SDS011;39768;54.148;12.174;2022-09-29T15:40:55;1.33;;;1.30;;
53513;SDS011;39768;54.148;12.174;2022-09-29T15:45:07;2.55;;;1.20;;
53513;SDS011;39768;54.148;12.174;2022-09-29T15:49:19;2.38;;;1.80;;
53513;SDS011;39768;54.148;12.174;2022-09-29T15:53:23;1.38;;;1.27;;
53513;SDS011;39768;54.148;12.174;2022-09-29T16:01:44;2.17;;;1.60;;
53513;SDS011;39768;54.148;12.174;2022-09-29T16:05:59;2.33;;;1.63;;
53513;SDS011;39768;54.148;12.174;2022-09-29T16:10:31;1.48;;;1.38;;
53513;SDS011;39768;54.148;12.174;2022-09-29T16:14:35;1.83;;;1.73;;
53513;SDS011;39768;54.148;12.174;2022-09-29T16:18:38;1.75;;;1.65;;
53513;SDS011;39768;54.148;12.174;2022-09-29T16:22:45;1.42;;;1.33;;
53513;SDS011;39768;54.148;12.174;2022-09-29T16:26:50;1.42;;;1.33;;
53513;SDS011;39768;54.148;12.174;2022-09-29T16:31:02;2.05;;;1.55;;
53513;SDS011;39768;54.148;12.174;2022-09-29T16:39:40;3.30;;;2.58;;
53513;SDS011;39768;54.148;12.174;2022-09-29T16:43:43;2.65;;;2.42;;
53513;SDS011;39768;54.148;12.174;2022-09-29T16:47:46;2.45;;;2.25;;
53513;SDS011;39768;54.148;12.174;2022-09-29T16:51:48;2.65;;;1.92;;
53513;SDS011;39768;54.148;12.174;2022-09-29T16:56:04;1.95;;;1.85;;
53513;SDS011;39768;54.148;12.174;2022-09-29T17:00:29;1.67;;;1.55;;
53513;SDS011;39768;54.148;12.174;2022-09-29T17:04:31;2.70;;;2.47;;
53513;SDS011;39768;54.148;12.174;2022-09-29T17:08:33;1.70;;;1.60;;
53513;SDS011;39768;54.148;12.174;2022-09-29T17:12:35;1.92;;;1.65;;
53513;SDS011;39768;54.148;12.174;2022-09-29T17:16:36;2.10;;;1.92;;
53513;SDS011;39768;54.148;12.174;2022-09-29T17:20:38;4.00;;;2.35;;
53513;SDS011;39768;54.148;12.174;2022-09-29T17:24:40;2.35;;;2.13;;
53513;SDS011;39768;54.148;12.174;2022-09-29T17:28:42;4.10;;;2.47;;
53513;SDS011;39768;54.148;12.174;2022-09-29T17:32:44;2.47;;;2.28;;
53513;SDS011;39768;54.148;12.174;2022-09-29T17:36:46;1.98;;;1.77;;
53513;SDS011;39768;54.148;12.174;2022-09-29T17:40:52;2.20;;;1.90;;
53513;SDS011;39768;54.148;12.174;2022-09-29T17:44:58;3.13;;;2.47;;
53513;SDS011;39768;54.148;12.174;2022-09-29T17:48:59;2.70;;;2.13;;
53513;SDS011;39768;54.148;12.174;2022-09-29T17:53:01;2.47;;;2.28;;
53513;SDS011;39768;54.148;12.174;2022-09-29T17:57:07;2.85;;;2.65;;
53513;SDS011;39768;54.148;12.174;2022-09-29T18:01:22;3.60;;;2.17;;
53513;SDS011;39768;54.148;12.174;2022-09-29T18:05:27;2.92;;;2.33;;
53513;SDS011;39768;54.148;12.174;2022-09-29T18:09:29;4.05;;;2.13;;
53513;SDS011;39768;54.148;12.174;2022-09-29T18:13:31;3.95;;;2.50;;
53513;SDS011;39768;54.148;12.174;2022-09-29T18:17:32;5.85;;;2.38;;
53513;SDS011;39768;54.148;12.174;2022-09-29T18:21:34;4.55;;;2.08;;
53513;SDS011;39768;54.148;12.174;2022-09-29T18:25:35;4.50;;;3.45;;
53513;SDS011;39768;54.148;12.174;2022-09-29T18:29:37;2.75;;;2.55;;
53513;SDS011;39768;54.148;12.174;2022-09-29T18:33:38;2.63;;;2.40;;
53513;SDS011;39768;54.148;12.174;2022-09-29T18:37:40;2.50;;;2.28;;
53513;SDS011;39768;54.148;12.174;2022-09-29T18:41:41;3.35;;;2.45;;
53513;SDS011;39768;54.148;12.174;2022-09-29T18:45:43;2.78;;;2.50;;
53513;SDS011;39768;54.148;12.174;2022-09-29T18:49:45;3.17;;;2.75;;
53513;SDS011;39768;54.148;12.174;2022-09-29T18:53:46;5.13;;;2.83;;
53513;SDS011;39768;54.148;12.174;2022-09-29T18:57:48;2.85;;;2.28;;
53513;SDS011;39768;54.148;12.174;2022-09-29T19:01:50;5.05;;;2.72;;
53513;SDS011;39768;54.148;12.174;2022-09-29T19:05:52;3.72;;;3.05;;
53513;SDS011;39768;54.148;12.174;2022-09-29T19:09:54;4.45;;;4.05;;
53513;SDS011;39768;54.148;12.174;2022-09-29T19:13:56;3.75;;;2.75;;
53513;SDS011;39768;54.148;12.174;2022-09-29T19:17:58;3.28;;;2.70;;
53513;SDS011;39768;54.148;12.174;2022-09-29T19:22:00;3.67;;;3.33;;
53513;SDS011;39768;54.148;12.174;2022-09-29T19:26:01;2.55;;;2.35;;
53513;SDS011;39768;54.148;12.174;2022-09-29T19:30:03;4.00;;;3.00;;
53513;SDS011;39768;54.148;12.174;2022-09-29T19:34:08;4.30;;;3.88;;
53513;SDS011;39768;54.148;12.174;2022-09-29T19:38:10;7.07;;;4.30;;
53513;SDS011;39768;54.148;12.174;2022-09-29T19:42:11;5.93;;;4.45;;
53513;SDS011;39768;54.148;12.174;2022-09-29T19:46:13;4.97;;;3.42;;
53513;SDS011;39768;54.148;12.174;2022-09-29T19:50:15;3.15;;;2.95;;
53513;SDS011;39768;54.148;12.174;2022-09-29T19:58:38;3.85;;;2.25;;
53513;SDS011;39768;54.148;12.174;2022-09-29T20:02:41;4.43;;;3.70;;
53513;SDS011;39768;54.148;12.174;2022-09-29T20:06:44;5.18;;;3.95;;
53513;SDS011;39768;54.148;12.174;2022-09-29T20:10:45;5.30;;;3.97;;
53513;SDS011;39768;54.148;12.174;2022-09-29T20:14:47;4.32;;;3.60;;
53513;SDS011;39768;54.148;12.174;2022-09-29T20:18:50;3.50;;;3.15;;
53513;SDS011;39768;54.148;12.174;2022-09-29T20:22:52;5.15;;;3.33;;
53513;SDS011;39768;54.148;12.174;2022-09-29T20:26:54;5.20;;;3.22;;
53513;SDS011;39768;54.148;12.174;2022-09-29T20:30:57;7.65;;;2.78;;
53513;SDS011;39768;54.148;12.174;2022-09-29T20:35:00;3.40;;;3.10;;
53513;SDS011;39768;54.148;12.174;2022-09-29T20:39:02;4.47;;;3.25;;
53513;SDS011;39768;54.148;12.174;2022-09-29T20:43:04;5.85;;;3.15;;
53513;SDS011;39768;54.148;12.174;2022-09-29T20:47:05;4.93;;;3.40;;
53513;SDS011;39768;54.148;12.174;2022-09-29T20:51:08;4.25;;;2.80;;
53513;SDS011;39768;54.148;12.174;2022-09-29T20:55:15;2.05;;;1.90;;
53513;SDS011;39768;54.148;12.174;2022-09-29T20:59:17;3.55;;;3.00;;
53513;SDS011;39768;54.148;12.174;2022-09-29T21:03:20;2.80;;;2.50;;
53513;SDS011;39768;54.148;12.174;2022-09-29T21:07:23;3.22;;;2.13;;
53513;SDS011;39768;54.148;12.174;2022-09-29T21:11:38;2.72;;;2.42;;
53513;SDS011;39768;54.148;12.174;2022-09-29T21:15:40;1.92;;;1.58;;
53513;SDS011;39768;54.148;12.174;2022-09-29T21:19:42;2.08;;;1.58;;
53513;SDS011;39768;54.148;12.174;2022-09-29T21:23:43;2.97;;;1.65;;
53513;SDS011;39768;54.148;12.174;2022-09-29T21:27:47;2.40;;;1.55;;
53513;SDS011;39768;54.148;12.174;2022-09-29T21:31:49;3.40;;;1.77;;
53513;SDS011;39768;54.148;12.174;2022-09-29T21:35:58;1.45;;;1.35;;
53513;SDS011;39768;54.148;12.174;2022-09-29T21:40:01;1.52;;;1.42;;
53513;SDS011;39768;54.148;12.174;2022-09-29T21:44:04;5.03;;;1.00;;
53513;SDS011;39768;54.148;12.174;2022-09-29T21:48:11;0.95;;;0.82;;
53513;SDS011;39768;54.148;12.174;2022-09-29T21:52:13;2.00;;;0.90;;
53513;SDS011;39768;54.148;12.174;2022-09-29T21:56:15;0.73;;;0.70;;
53513;SDS011;39768;54.148;12.174;2022-09-29T22:00:18;0.77;;;0.63;;
53513;SDS011;39768;54.148;12.174;2022-09-29T22:04:19;0.63;;;0.63;;
53513;SDS011;39768;54.148;12.174;2022-09-29T22:08:21;0.88;;;0.73;;
53513;SDS011;39768;54.148;12.174;2022-09-29T22:12:24;0.80;;;0.60;;
53513;SDS011;39768;54.148;12.174;2022-09-29T22:16:27;1.75;;;1.10;;
53513;SDS011;39768;54.148;12.174;2022-09-29T22:20:31;0.77;;;0.75;;
53513;SDS011;39768;54.148;12.174;2022-09-29T22:24:33;0.60;;;0.60;;
53513;SDS011;39768;54.148;12.174;2022-09-29T22:28:34;0.82;;;0.82;;
53513;SDS011;39768;54.148;12.174;2022-09-29T22:32:36;0.75;;;0.75;;
53513;SDS011;39768;54.148;12.174;2022-09-29T22:36:38;1.02;;;0.93;;
53513;SDS011;39768;54.148;12.174;2022-09-29T22:40:40;1.02;;;0.90;;
53513;SDS011;39768;54.148;12.174;2022-09-29T22:44:41;0.80;;;0.70;;
53513;SDS011;39768;54.148;12.174;2022-09-29T22:48:43;0.95;;;0.95;;
53513;SDS011;39768;54.148;12.174;2022-09-29T22:52:44;0.82;;;0.70;;
53513;SDS011;39768;54.148;12.174;2022-09-29T22:56:46;0.60;;;0.60;;
53513;SDS011;39768;54.148;12.174;2022-09-29T23:00:48;1.40;;;0.98;;
53513;SDS011;39768;54.148;12.174;2022-09-29T23:05:02;0.85;;;0.75;;
53513;SDS011;39768;54.148;12.174;2022-09-29T23:09:04;0.85;;;0.63;;
53513;SDS011;39768;54.148;12.174;2022-09-29T23:13:06;0.40;;;0.40;;
53513;SDS011;39768;54.148;12.174;2022-09-29T23:17:07;0.40;;;0.40;;
53513;SDS011;39768;54.148;12.174;2022-09-29T23:21:09;0.40;;;0.40;;
53513;SDS011;39768;54.148;12.174;2022-09-29T23:25:12;0.70;;;0.70;;
53513;SDS011;39768;54.148;12.174;2022-09-29T23:29:14;0.85;;;0.80;;
53513;SDS011;39768;54.148;12.174;2022-09-29T23:33:15;0.98;;;0.47;;
53513;SDS011;39768;54.148;12.174;2022-09-29T23:37:17;3.58;;;1.08;;
53513;SDS011;39768;54.148;12.174;2022-09-29T23:41:18;0.75;;;0.75;;
53513;SDS011;39768;54.148;12.174;2022-09-29T23:45:20;0.95;;;0.85;;
53513;SDS011;39768;54.148;12.174;2022-09-29T23:49:23;0.40;;;0.40;;
53513;SDS011;39768;54.148;12.174;2022-09-29T23:53:27;1.30;;;1.20;;
53513;SDS011;39768;54.148;12.174;2022-09-29T23:57:28;0.60;;;0.60;;
